Time;durP1;ratioP1;P1;durP2;ratioP2;P2;SDS_P1;SDS_P2;PMS_P1;PMS_P2;Temp;Humidity;BMP_temperature;BMP_pressure;BME280_temperature;BME280_humidity;BME280_pressure;Samples;Min_cycle;Max_cycle;Signal;HPM_P1;HPM_P2
2022/01/15 00:00:21;;;;;;;79.27;30.47;;;3.80;99.90;;;;;;5064802;28;20218;-58
2022/01/15 00:02:48;;;;;;;78.67;30.87;;;3.80;99.90;;;;;;5085916;28;20213;-58
2022/01/15 00:05:15;;;;;;;74.07;28.90;;;3.80;20.60;;;;;;5087841;28;20189;-58
2022/01/15 00:07:47;;;;;;;80.67;32.00;;;3.80;13.90;;;;;;5070187;28;20271;-58
2022/01/15 00:10:16;;;;;;;73.13;30.57;;;3.90;99.90;;;;;;5069242;28;20258;-58
2022/01/15 00:12:50;;;;;;;77.10;30.63;;;3.90;83.50;;;;;;5072838;28;20214;-59
2022/01/15 00:15:28;;;;;;;67.93;27.87;;;3.90;1.00;;;;;;5053331;28;20221;-59
2022/01/15 00:20:23;;;;;;;84.57;29.10;;;4.00;36.50;;;;;;5063133;28;20285;-58
2022/01/15 00:22:52;;;;;;;75.67;30.37;;;4.00;3.50;;;;;;5063084;28;20695;-58
2022/01/15 00:25:23;;;;;;;69.70;28.83;;;4.00;29.70;;;;;;5066560;28;20198;-59
2022/01/15 00:27:50;;;;;;;71.10;29.57;;;3.90;1.00;;;;;;5056854;28;20197;-58
2022/01/15 00:30:18;;;;;;;76.07;29.67;;;3.90;1.00;;;;;;5071257;28;20253;-59
2022/01/15 00:32:46;;;;;;;69.43;28.23;;;4.00;1.00;;;;;;5082344;28;20226;-57
2022/01/15 00:35:14;;;;;;;62.10;27.73;;;4.00;1.00;;;;;;5084861;28;20202;-59
2022/01/15 00:37:42;;;;;;;64.80;28.67;;;4.00;1.00;;;;;;5054802;28;20285;-59
2022/01/15 00:40:12;;;;;;;62.93;28.67;;;3.90;1.00;;;;;;5080785;28;20549;-58
2022/01/15 00:42:40;;;;;;;66.23;27.97;;;3.90;1.00;;;;;;5084544;28;20938;-58
2022/01/15 00:45:17;;;;;;;67.83;28.93;;;4.00;1.00;;;;;;5056810;28;20659;-59
2022/01/15 00:47:45;;;;;;;70.23;28.30;;;3.90;1.00;;;;;;5069878;28;20190;-59
2022/01/15 00:50:12;;;;;;;66.03;28.73;;;4.00;1.00;;;;;;5067333;28;20755;-59
2022/01/15 00:52:41;;;;;;;65.03;28.50;;;4.00;1.00;;;;;;5068278;28;20226;-59
2022/01/15 00:55:10;;;;;;;58.57;26.77;;;4.00;1.00;;;;;;5083070;28;20191;-59
2022/01/15 00:57:40;;;;;;;60.60;27.47;;;4.10;1.00;;;;;;5086263;28;20186;-58
2022/01/15 01:00:09;;;;;;;66.47;27.50;;;4.10;1.00;;;;;;5071545;28;20226;-58
2022/01/15 01:02:36;;;;;;;67.87;30.53;;;4.10;1.00;;;;;;5052109;28;20634;-58
2022/01/15 01:05:03;;;;;;;69.37;30.73;;;4.10;1.00;;;;;;5069540;28;20702;-59
2022/01/15 01:07:33;;;;;;;65.10;27.63;;;4.00;99.90;;;;;;5080275;28;20239;-58
2022/01/15 01:23:21;;;;;;;69.93;31.10;;;;;;;;;;5079156;28;20625;-59
2022/01/15 01:25:57;;;;;;;73.63;30.67;;;3.90;1.00;;;;;;5056081;28;20214;-58
2022/01/15 01:28:34;;;;;;;70.50;29.00;;;3.90;1.00;;;;;;5063441;28;20274;-59
2022/01/15 01:31:17;;;;;;;77.73;32.30;;;3.90;1.00;;;;;;5075749;28;20702;-57
2022/01/15 01:33:46;;;;;;;65.23;28.70;;;;;;;;;;5078869;28;20848;-58
2022/01/15 01:39:01;;;;;;;66.83;30.73;;;4.00;99.90;;;;;;5082507;28;20740;-59
2022/01/15 01:41:35;;;;;;;63.37;27.70;;;4.00;99.90;;;;;;5065729;28;20202;-58
2022/01/15 01:44:04;;;;;;;62.80;29.03;;;4.00;99.90;;;;;;5064060;28;20220;-58
2022/01/15 01:46:38;;;;;;;64.07;29.17;;;4.00;99.90;;;;;;5067984;28;20214;-59
2022/01/15 01:49:12;;;;;;;67.27;29.40;;;4.00;99.90;;;;;;5079041;28;20285;-59
2022/01/15 01:51:40;;;;;;;69.73;29.77;;;4.00;99.90;;;;;;5067132;28;20252;-59
2022/01/15 01:54:09;;;;;;;70.80;31.33;;;4.00;24.70;;;;;;5078222;28;20574;-58
2022/01/15 01:56:38;;;;;;;75.77;31.33;;;4.00;1.00;;;;;;5081287;28;20602;-59
2022/01/15 01:59:07;;;;;;;78.27;33.13;;;3.90;1.00;;;;;;5066794;28;20313;-59
2022/01/15 02:01:34;;;;;;;75.50;29.73;;;3.90;1.00;;;;;;5048825;28;20301;-59
2022/01/15 02:04:02;;;;;;;71.47;30.37;;;3.80;1.00;;;;;;5063578;28;20213;-59
2022/01/15 02:06:29;;;;;;;74.77;30.87;;;3.80;1.00;;;;;;5081436;28;20195;-58
2022/01/15 02:08:58;;;;;;;72.70;30.87;;;3.80;1.00;;;;;;5062675;28;20529;-59
2022/01/15 02:11:26;;;;;;;78.80;33.70;;;3.90;57.50;;;;;;5080579;28;21176;-59
2022/01/15 02:13:55;;;;;;;71.67;30.67;;;3.90;56.60;;;;;;5078299;28;20197;-58
2022/01/15 02:16:22;;;;;;;70.00;30.37;;;3.90;99.90;;;;;;5064902;28;20222;-58
2022/01/15 02:18:54;;;;;;;61.97;28.93;;;3.80;1.00;;;;;;5043981;28;20627;-57
2022/01/15 02:23:54;;;;;;;66.00;29.23;;;3.90;48.40;;;;;;5078305;28;20217;-58
2022/01/15 02:26:27;;;;;;;65.60;29.10;;;3.90;49.50;;;;;;5050328;28;20199;-58
2022/01/15 02:29:01;;;;;;;73.13;29.83;;;3.90;20.00;;;;;;5063399;28;20220;-58
2022/01/15 02:31:30;;;;;;;69.87;29.80;;;3.90;51.00;;;;;;5076693;28;20620;-58
2022/01/15 02:34:00;;;;;;;75.17;30.10;;;3.80;1.00;;;;;;5073838;28;20237;-56
2022/01/15 02:36:32;;;;;;;76.13;32.00;;;3.80;1.00;;;;;;5063151;28;20202;-58
2022/01/15 02:39:03;;;;;;;72.93;29.30;;;3.80;1.00;;;;;;5048244;28;20226;-60
2022/01/15 02:41:31;;;;;;;75.20;31.67;;;3.70;1.00;;;;;;5066886;28;20827;-57
2022/01/15 02:44:02;;;;;;;65.90;30.57;;;3.80;1.00;;;;;;5060634;28;20746;-56
2022/01/15 02:49:00;;;;;;;82.67;31.80;;;3.80;1.00;;;;;;5085966;28;20194;-56
2022/01/15 02:51:37;;;;;;;73.60;32.13;;;3.80;1.00;;;;;;5067321;28;20283;-58
2022/01/15 02:54:05;;;;;;;78.07;32.63;;;3.80;1.00;;;;;;5068913;28;20404;-57
2022/01/15 02:56:36;;;;;;;75.70;31.47;;;3.80;1.00;;;;;;5052989;28;20599;-58
2022/01/15 02:59:08;;;;;;;65.70;28.67;;;3.80;1.00;;;;;;5084212;28;20245;-63
2022/01/15 03:01:38;;;;;;;72.60;30.27;;;3.80;1.00;;;;;;5067963;28;20197;-65
2022/01/15 03:04:05;;;;;;;71.03;30.70;;;3.80;1.00;;;;;;5084659;28;20197;-61
2022/01/15 03:06:37;;;;;;;74.00;31.77;;;3.80;1.00;;;;;;5082434;28;20198;-63
2022/01/15 03:09:06;;;;;;;70.93;29.47;;;3.80;1.00;;;;;;5043628;28;20206;-63
2022/01/15 03:11:40;;;;;;;74.70;31.60;;;3.80;1.00;;;;;;5079327;28;20221;-63
2022/01/15 03:14:07;;;;;;;71.70;30.20;;;3.80;1.00;;;;;;5063021;28;20725;-62
2022/01/15 03:16:34;;;;;;;71.03;30.10;;;3.80;1.00;;;;;;5081622;28;20197;-63
2022/01/15 03:19:05;;;;;;;72.53;30.40;;;3.80;1.00;;;;;;5062575;28;20669;-63
2022/01/15 03:21:32;;;;;;;69.50;29.80;;;3.80;1.00;;;;;;5082041;28;20636;-63
2022/01/15 03:24:01;;;;;;;73.90;30.70;;;3.80;1.00;;;;;;5062266;28;20695;-63
2022/01/15 03:26:28;;;;;;;75.50;29.93;;;3.70;1.00;;;;;;5046257;28;20198;-63
2022/01/15 03:28:55;;;;;;;76.97;30.33;;;3.80;1.00;;;;;;5059586;28;20234;-62
2022/01/15 03:31:22;;;;;;;72.00;29.37;;;3.70;1.00;;;;;;5067015;28;20291;-62
2022/01/15 03:33:49;;;;;;;75.03;32.17;;;3.70;1.00;;;;;;5085750;28;20334;-62
2022/01/15 03:36:16;;;;;;;73.77;30.30;;;3.80;12.90;;;;;;5060774;28;20225;-63
2022/01/15 03:38:43;;;;;;;76.57;29.77;;;3.80;99.90;;;;;;5061831;28;20215;-63
2022/01/15 03:41:18;;;;;;;74.93;31.70;;;3.90;99.90;;;;;;5063338;28;20200;-64
2022/01/15 03:43:50;;;;;;;70.83;29.77;;;3.80;1.00;;;;;;5083025;28;20197;-62
2022/01/15 03:46:17;;;;;;;73.73;30.67;;;3.80;1.00;;;;;;5063453;28;20190;-63
2022/01/15 03:48:47;;;;;;;68.93;29.77;;;3.80;1.00;;;;;;5043684;28;20202;-63
2022/01/15 03:51:19;;;;;;;74.57;30.43;;;3.80;1.00;;;;;;5077181;28;20198;-62
2022/01/15 03:53:46;;;;;;;68.17;30.60;;;3.90;1.00;;;;;;5059253;28;20194;-62
2022/01/15 03:56:13;;;;;;;69.50;31.57;;;3.80;1.00;;;;;;5059592;28;20209;-62
2022/01/15 03:58:42;;;;;;;70.43;30.10;;;3.90;1.00;;;;;;5067385;28;20190;-63
2022/01/15 04:01:11;;;;;;;70.50;30.13;;;3.90;67.10;;;;;;5056067;28;20209;-62
2022/01/15 04:03:39;;;;;;;68.77;29.43;;;3.90;80.90;;;;;;5075697;28;20259;-62
2022/01/15 04:06:06;;;;;;;65.37;30.20;;;3.90;1.00;;;;;;5061401;28;20198;-62
2022/01/15 04:08:33;;;;;;;66.70;29.53;;;3.90;1.00;;;;;;5060256;28;20194;-63
2022/01/15 04:11:00;;;;;;;69.90;30.30;;;3.90;1.00;;;;;;5043649;28;20222;-63
2022/01/15 04:13:27;;;;;;;72.93;31.73;;;3.90;1.00;;;;;;5081316;28;20182;-63
2022/01/15 04:15:54;;;;;;;71.77;30.57;;;3.90;1.00;;;;;;5066368;28;20234;-62
2022/01/15 04:18:22;;;;;;;66.00;30.73;;;3.90;1.00;;;;;;5063210;28;20198;-62
2022/01/15 04:20:52;;;;;;;67.17;28.67;;;3.90;1.00;;;;;;5082137;28;20214;-62
2022/01/15 04:23:21;;;;;;;62.17;30.03;;;3.90;1.00;;;;;;5076512;28;20227;-63
2022/01/15 04:25:48;;;;;;;63.73;29.47;;;3.90;1.00;;;;;;5074118;28;20193;-63
2022/01/15 04:28:15;;;;;;;64.83;27.30;;;3.90;1.00;;;;;;5058809;28;20271;-62
2022/01/15 04:30:48;;;;;;;60.37;28.80;;;3.90;1.00;;;;;;5042626;28;20206;-62
2022/01/15 04:33:15;;;;;;;66.97;28.80;;;3.90;1.00;;;;;;5055489;28;20658;-63
2022/01/15 04:35:44;;;;;;;61.23;27.57;;;3.90;1.00;;;;;;5058806;28;20192;-62
2022/01/15 04:38:14;;;;;;;51.10;26.20;;;3.90;1.00;;;;;;5061615;28;20753;-62
2022/01/15 04:40:44;;;;;;;54.80;26.03;;;3.90;1.00;;;;;;5064608;28;20202;-62
2022/01/15 04:43:13;;;;;;;52.93;26.77;;;4.00;1.00;;;;;;5045774;28;20297;-63
2022/01/15 04:45:40;;;;;;;56.03;27.90;;;4.00;1.00;;;;;;5067056;28;20214;-62
2022/01/15 04:48:09;;;;;;;57.20;26.30;;;4.00;1.00;;;;;;5067007;28;20206;-62
2022/01/15 04:50:36;;;;;;;56.67;27.90;;;4.00;1.00;;;;;;5065431;28;20578;-63
2022/01/15 04:53:04;;;;;;;57.67;27.77;;;4.00;1.00;;;;;;5041163;28;20199;-64
2022/01/15 04:55:31;;;;;;;58.70;27.57;;;4.00;1.00;;;;;;5066970;28;20594;-61
2022/01/15 04:57:58;;;;;;;51.47;25.50;;;4.00;1.00;;;;;;5074984;28;20195;-63
2022/01/15 05:00:27;;;;;;;48.03;26.13;;;4.00;1.00;;;;;;5062642;28;20198;-60
2022/01/15 05:02:54;;;;;;;46.87;23.80;;;4.00;1.00;;;;;;5056152;28;20268;-62
2022/01/15 05:05:21;;;;;;;51.37;25.53;;;4.00;1.00;;;;;;5047818;28;20199;-61
2022/01/15 05:07:51;;;;;;;51.70;24.80;;;4.10;1.00;;;;;;5043907;28;20198;-62
2022/01/15 05:10:21;;;;;;;46.90;24.87;;;4.00;99.90;;;;;;5062303;28;20249;-62
2022/01/15 05:12:49;;;;;;;44.10;23.57;;;4.00;99.90;;;;;;5058287;28;20790;-62
2022/01/15 05:15:19;;;;;;;44.43;23.60;;;3.90;99.90;;;;;;5066062;28;20187;-62
2022/01/15 05:17:49;;;;;;;36.77;20.07;;;4.00;99.90;;;;;;5063548;28;20199;-62
2022/01/15 05:20:17;;;;;;;32.63;19.57;;;4.10;99.90;;;;;;5063141;28;20419;-62
2022/01/15 05:22:48;;;;;;;34.23;19.77;;;4.10;99.90;;;;;;5059620;28;20268;-62
2022/01/15 05:25:17;;;;;;;32.37;19.60;;;4.10;99.90;;;;;;5061186;28;20195;-63
2022/01/15 05:27:45;;;;;;;35.80;19.77;;;4.10;99.90;;;;;;5066401;28;20182;-63
2022/01/15 05:30:13;;;;;;;27.57;18.60;;;4.10;68.30;;;;;;5058471;28;20186;-62
2022/01/15 05:32:41;;;;;;;28.83;18.40;;;4.20;19.20;;;;;;5048699;28;20708;-63
2022/01/15 05:35:09;;;;;;;29.83;18.53;;;4.20;1.00;;;;;;5048666;28;20264;-63
2022/01/15 05:37:37;;;;;;;28.77;19.27;;;4.20;1.00;;;;;;5083389;28;20187;-63
2022/01/15 05:40:06;;;;;;;26.70;18.30;;;4.20;1.00;;;;;;5052728;28;20194;-63
2022/01/15 05:42:36;;;;;;;26.83;17.63;;;4.20;1.00;;;;;;5062773;28;20194;-62
2022/01/15 05:45:04;;;;;;;28.27;18.80;;;4.20;1.00;;;;;;5069799;28;20297;-63
2022/01/15 05:47:31;;;;;;;26.20;17.93;;;4.20;1.00;;;;;;5054170;28;20222;-63
2022/01/15 05:49:57;;;;;;;27.23;18.10;;;4.20;1.00;;;;;;5053170;28;20570;-62
2022/01/15 05:52:27;;;;;;;29.23;18.80;;;4.20;1.00;;;;;;5064024;28;20306;-63
2022/01/15 05:54:54;;;;;;;31.37;19.13;;;4.20;99.90;;;;;;5060585;28;20218;-65
2022/01/15 05:57:21;;;;;;;31.53;19.73;;;4.20;99.90;;;;;;5062097;28;20198;-62
2022/01/15 05:59:51;;;;;;;28.57;18.73;;;4.20;99.90;;;;;;5080650;28;20191;-63
2022/01/15 06:02:19;;;;;;;30.47;20.10;;;4.20;99.90;;;;;;5077334;28;20760;-64
2022/01/15 06:04:47;;;;;;;31.00;19.00;;;4.20;99.90;;;;;;5046772;28;20202;-62
2022/01/15 06:07:14;;;;;;;30.13;19.77;;;4.20;99.90;;;;;;5070119;28;20237;-64
2022/01/15 06:09:43;;;;;;;29.57;19.13;;;4.20;99.90;;;;;;5067350;28;20222;-63
2022/01/15 06:12:10;;;;;;;32.40;19.47;;;4.20;99.90;;;;;;5055339;28;20306;-64
2022/01/15 06:14:37;;;;;;;32.13;19.93;;;4.20;99.90;;;;;;5066504;28;20202;-63
2022/01/15 06:17:08;;;;;;;29.13;19.20;;;4.20;99.90;;;;;;5067188;28;20206;-64
2022/01/15 06:19:42;;;;;;;31.80;18.97;;;4.20;99.90;;;;;;5068854;28;20744;-62
2022/01/15 06:22:12;;;;;;;30.80;18.63;;;4.20;99.90;;;;;;5073966;28;20218;-63
2022/01/15 06:24:40;;;;;;;31.13;19.27;;;4.20;99.90;;;;;;5082297;28;20210;-63
2022/01/15 06:27:11;;;;;;;31.87;19.77;;;4.20;99.90;;;;;;5085195;28;20676;-63
2022/01/15 06:29:39;;;;;;;36.47;19.87;;;4.10;99.90;;;;;;5060820;28;20209;-63
2022/01/15 06:32:09;;;;;;;36.53;20.47;;;4.20;99.90;;;;;;5061235;28;20648;-62
2022/01/15 06:34:39;;;;;;;35.90;20.40;;;4.10;99.90;;;;;;5085594;28;20311;-66
2022/01/15 06:37:09;;;;;;;37.77;21.00;;;4.10;99.90;;;;;;5053443;28;20191;-64
2022/01/15 06:39:35;;;;;;;40.50;21.03;;;4.10;99.90;;;;;;5067426;28;20194;-63
2022/01/15 06:42:05;;;;;;;34.00;20.20;;;4.10;99.90;;;;;;5048839;28;20194;-63
2022/01/15 06:44:32;;;;;;;36.53;20.43;;;4.10;99.90;;;;;;5059194;28;20249;-64
2022/01/15 06:47:01;;;;;;;36.60;21.60;;;4.10;99.90;;;;;;5051137;28;20205;-63
2022/01/15 06:49:28;;;;;;;35.47;20.50;;;4.10;99.90;;;;;;5087392;28;20824;-64
2022/01/15 06:51:55;;;;;;;33.77;20.40;;;4.10;99.90;;;;;;5062179;28;20243;-63
2022/01/15 06:54:22;;;;;;;35.67;20.70;;;4.10;99.90;;;;;;5067085;28;20195;-63
2022/01/15 06:56:54;;;;;;;39.43;23.23;;;4.10;99.90;;;;;;5066771;28;20271;-63
2022/01/15 06:59:24;;;;;;;33.93;20.53;;;4.10;99.90;;;;;;5066551;28;20213;-64
2022/01/15 07:01:51;;;;;;;34.47;21.63;;;4.10;99.90;;;;;;5080433;28;20226;-63
2022/01/15 07:04:18;;;;;;;35.33;20.13;;;4.20;99.90;;;;;;5080314;28;20298;-62
2022/01/15 07:06:47;;;;;;;41.00;24.40;;;4.10;99.90;;;;;;5066783;28;20285;-63
2022/01/15 07:09:17;;;;;;;33.83;19.07;;;4.10;99.90;;;;;;5066504;28;20218;-62
2022/01/15 07:11:44;;;;;;;29.13;19.17;;;4.10;99.90;;;;;;5046151;28;20300;-64
2022/01/15 07:14:11;;;;;;;30.17;18.83;;;4.10;99.90;;;;;;5051905;28;20217;-62
2022/01/15 07:16:38;;;;;;;27.77;16.57;;;4.10;99.90;;;;;;5068380;28;20205;-63
2022/01/15 07:19:05;;;;;;;28.90;17.37;;;4.00;99.90;;;;;;5068286;28;20305;-62
2022/01/15 07:21:34;;;;;;;26.20;16.60;;;4.10;99.90;;;;;;5084043;28;20286;-64
2022/01/15 07:24:04;;;;;;;24.10;14.97;;;4.10;20.00;;;;;;5066157;28;20649;-63
2022/01/15 07:26:31;;;;;;;26.70;15.90;;;4.10;41.20;;;;;;5052621;28;20304;-63
2022/01/15 07:28:58;;;;;;;33.40;19.73;;;4.10;80.60;;;;;;5079806;28;20409;-64
2022/01/15 07:31:25;;;;;;;30.37;17.03;;;4.10;89.40;;;;;;5065442;28;20251;-64
2022/01/15 07:33:52;;;;;;;28.17;17.33;;;4.10;1.00;;;;;;5075591;28;20279;-64
2022/01/15 07:36:22;;;;;;;26.33;16.57;;;4.10;1.00;;;;;;5043689;28;20287;-63
2022/01/15 07:38:49;;;;;;;22.27;14.23;;;4.10;1.00;;;;;;5079541;28;20251;-62
2022/01/15 07:41:18;;;;;;;23.40;14.53;;;4.10;1.00;;;;;;5064736;28;20251;-64
2022/01/15 07:43:45;;;;;;;22.60;13.73;;;4.10;1.00;;;;;;5063133;28;20256;-62
2022/01/15 07:46:12;;;;;;;19.93;12.47;;;4.10;1.00;;;;;;5050351;28;20243;-63
2022/01/15 07:48:39;;;;;;;21.83;13.93;;;4.10;1.00;;;;;;5063752;28;20598;-62
2022/01/15 07:51:07;;;;;;;24.80;15.43;;;4.10;1.00;;;;;;5085829;28;20239;-63
2022/01/15 07:53:34;;;;;;;18.27;12.70;;;4.10;1.00;;;;;;5084641;28;20194;-62
2022/01/15 07:56:01;;;;;;;23.83;15.13;;;4.10;1.00;;;;;;5063002;28;20199;-65
2022/01/15 07:58:28;;;;;;;18.87;12.23;;;4.10;1.00;;;;;;5059471;28;20220;-62
2022/01/15 08:00:57;;;;;;;17.50;11.53;;;4.10;1.00;;;;;;5079058;28;20265;-64
2022/01/15 08:03:28;;;;;;;18.23;11.60;;;4.10;1.00;;;;;;5058677;28;20197;-62
2022/01/15 08:05:55;;;;;;;15.23;10.20;;;4.20;1.00;;;;;;5082904;28;20305;-63
2022/01/15 08:08:22;;;;;;;15.67;10.03;;;4.20;1.00;;;;;;5079149;28;20247;-63
2022/01/15 08:10:49;;;;;;;14.63;8.90;;;4.10;1.00;;;;;;5069111;28;20605;-63
2022/01/15 08:13:16;;;;;;;16.30;10.37;;;4.10;1.00;;;;;;5066355;28;20222;-63
2022/01/15 08:15:43;;;;;;;14.57;9.03;;;4.10;99.90;;;;;;5069714;28;20197;-64
2022/01/15 08:18:10;;;;;;;12.37;8.53;;;4.00;99.90;;;;;;5069774;28;20194;-62
2022/01/15 08:20:43;;;;;;;14.57;8.40;;;4.00;1.00;;;;;;5070388;28;20302;-63
2022/01/15 08:23:11;;;;;;;13.37;8.63;;;4.10;1.00;;;;;;5062422;28;20199;-63
2022/01/15 08:25:38;;;;;;;10.63;7.57;;;4.20;99.90;;;;;;5071220;28;20661;-62
2022/01/15 08:28:05;;;;;;;13.83;7.77;;;4.20;99.90;;;;;;5089809;28;20202;-62
2022/01/15 08:30:37;;;;;;;12.30;8.40;;;4.20;99.90;;;;;;5069822;28;20241;-61
2022/01/15 08:33:06;;;;;;;11.57;7.93;;;4.30;99.90;;;;;;5082004;28;20316;-62
2022/01/15 08:35:35;;;;;;;12.07;8.43;;;4.40;99.90;;;;;;5070575;28;20285;-61
2022/01/15 08:38:03;;;;;;;10.20;7.30;;;4.30;99.90;;;;;;5052551;28;20229;-62
2022/01/15 08:40:33;;;;;;;12.00;8.00;;;4.40;99.90;;;;;;5082521;28;20221;-61
2022/01/15 08:43:01;;;;;;;10.37;6.97;;;4.40;99.90;;;;;;5086977;28;20202;-62
2022/01/15 08:45:28;;;;;;;10.10;7.27;;;4.40;99.90;;;;;;5090814;28;20216;-61
2022/01/15 08:47:58;;;;;;;9.10;6.27;;;4.50;99.90;;;;;;5062848;28;21719;-61
2022/01/15 08:50:28;;;;;;;9.47;6.60;;;4.50;1.00;;;;;;5048826;28;20206;-61
2022/01/15 08:52:55;;;;;;;13.60;8.87;;;4.40;11.20;;;;;;5066515;28;20226;-62
2022/01/15 08:55:28;;;;;;;8.30;6.40;;;4.50;1.00;;;;;;5069638;28;20271;-63
2022/01/15 08:57:56;;;;;;;10.43;6.93;;;4.50;17.50;;;;;;5068784;28;20198;-62
2022/01/15 09:00:23;;;;;;;10.93;7.47;;;4.50;1.00;;;;;;5088752;28;20211;-62
2022/01/15 09:02:50;;;;;;;8.80;6.60;;;4.50;1.00;;;;;;5064478;28;20190;-62
2022/01/15 09:05:18;;;;;;;8.53;6.33;;;4.50;1.00;;;;;;5083215;28;20637;-61
2022/01/15 09:07:44;;;;;;;11.47;7.47;;;4.50;1.00;;;;;;5066702;28;20305;-62
2022/01/15 09:10:11;;;;;;;9.80;7.77;;;4.50;1.00;;;;;;5070758;28;20313;-62
2022/01/15 09:12:42;;;;;;;10.20;8.00;;;4.40;1.00;;;;;;5069820;28;20324;-62
2022/01/15 09:15:28;;;;;;;10.63;8.30;;;4.30;1.00;;;;;;5070453;28;20206;-61
2022/01/15 09:17:55;;;;;;;8.63;6.40;;;4.40;1.00;;;;;;5064468;28;20198;-62
2022/01/15 09:20:22;;;;;;;9.87;6.83;;;4.30;1.00;;;;;;5086273;28;20207;-62
2022/01/15 09:22:49;;;;;;;9.10;7.23;;;4.30;1.00;;;;;;5085477;28;20606;-62
2022/01/15 09:25:19;;;;;;;8.87;6.80;;;4.40;1.00;;;;;;5073201;28;20199;-64
2022/01/15 09:30:33;;;;;;;8.43;7.00;;;4.50;1.00;;;;;;5069017;28;20198;-63
2022/01/15 09:33:02;;;;;;;10.40;7.70;;;4.40;1.00;;;;;;5049977;28;20218;-63
2022/01/15 09:35:32;;;;;;;10.20;7.00;;;4.40;1.00;;;;;;5086396;28;20225;-62
2022/01/15 09:38:05;;;;;;;9.60;7.93;;;4.30;1.00;;;;;;5054743;28;20659;-63
2022/01/15 09:40:32;;;;;;;9.17;7.57;;;4.30;1.00;;;;;;5067867;28;20205;-63
2022/01/15 09:43:00;;;;;;;10.27;7.83;;;4.30;1.00;;;;;;5072298;28;20206;-63
2022/01/15 09:45:29;;;;;;;8.83;7.40;;;4.30;1.00;;;;;;5053544;28;20291;-62
2022/01/15 09:48:02;;;;;;;12.03;9.20;;;4.30;1.00;;;;;;5086525;28;20195;-64
2022/01/15 09:50:33;;;;;;;11.57;8.90;;;4.40;1.00;;;;;;5085329;28;20255;-63
2022/01/15 09:53:00;;;;;;;11.17;8.53;;;4.30;1.00;;;;;;5088884;28;20297;-64
2022/01/15 09:55:28;;;;;;;10.03;7.43;;;4.40;1.00;;;;;;5066791;28;20216;-63
2022/01/15 09:57:58;;;;;;;10.93;8.43;;;4.50;1.00;;;;;;5068237;28;20629;-63
2022/01/15 10:00:26;;;;;;;11.70;7.67;;;4.60;1.00;;;;;;5066890;28;20678;-62
2022/01/15 10:02:54;;;;;;;11.37;8.87;;;4.70;1.00;;;;;;5057698;28;20216;-63
2022/01/15 10:05:22;;;;;;;11.23;8.50;;;4.60;1.00;;;;;;5070849;28;21191;-63
2022/01/15 10:07:58;;;;;;;11.27;8.63;;;4.70;1.00;;;;;;5063558;28;20263;-63
2022/01/15 10:10:29;;;;;;;17.33;9.00;;;4.70;1.00;;;;;;5069318;28;20194;-64
2022/01/15 10:13:20;;;;;;;11.73;8.53;;;4.60;1.00;;;;;;5067223;28;20313;-63
2022/01/15 10:15:57;;;;;;;12.37;8.30;;;4.60;1.00;;;;;;5063450;28;20194;-63
2022/01/15 10:18:28;;;;;;;12.17;8.43;;;4.60;1.00;;;;;;5056021;28;20194;-62
2022/01/15 10:21:29;;;;;;;12.13;8.97;;;4.50;1.00;;;;;;5079554;28;20210;-63
2022/01/15 10:24:00;;;;;;;11.73;8.17;;;4.60;1.00;;;;;;5065940;28;20198;-63
2022/01/15 10:26:35;;;;;;;11.50;7.97;;;4.60;1.00;;;;;;5044792;28;20194;-64
2022/01/15 10:29:10;;;;;;;10.57;7.70;;;4.70;1.00;;;;;;5061178;28;20218;-58
2022/01/15 10:31:42;;;;;;;12.13;8.37;;;4.60;1.00;;;;;;5053441;28;20760;-57
2022/01/15 10:34:37;;;;;;;10.60;8.00;;;4.70;1.00;;;;;;5085784;28;20248;-59
2022/01/15 10:37:09;;;;;;;11.10;8.33;;;4.60;1.00;;;;;;5059111;28;20198;-60
2022/01/15 10:39:36;;;;;;;10.37;7.93;;;4.60;1.00;;;;;;5078878;28;20228;-59
2022/01/15 10:42:14;;;;;;;10.67;7.57;;;4.60;1.00;;;;;;5067065;28;20198;-57
2022/01/15 10:44:42;;;;;;;10.07;7.43;;;4.70;1.00;;;;;;5083700;28;20251;-58
2022/01/15 10:47:12;;;;;;;11.20;7.77;;;4.70;1.00;;;;;;5063130;28;20263;-59
2022/01/15 10:49:44;;;;;;;10.77;8.17;;;4.70;1.00;;;;;;5027761;28;20201;-60
2022/01/15 10:52:15;;;;;;;8.93;6.90;;;4.70;1.00;;;;;;5059190;28;20218;-59
2022/01/15 10:55:04;;;;;;;10.63;7.87;;;4.70;1.00;;;;;;5065040;28;20218;-60
2022/01/15 10:57:38;;;;;;;8.30;6.53;;;4.60;1.00;;;;;;5062332;28;20674;-59
2022/01/15 11:00:11;;;;;;;10.80;7.73;;;4.50;1.00;;;;;;5061309;28;20714;-57
2022/01/15 11:02:50;;;;;;;10.40;7.93;;;4.70;1.00;;;;;;5048574;28;20209;-56
2022/01/15 11:05:20;;;;;;;10.23;8.00;;;4.70;1.00;;;;;;5063046;28;20210;-58
2022/01/15 11:07:47;;;;;;;8.90;7.50;;;4.80;1.00;;;;;;5062899;28;20208;-58
2022/01/15 11:10:18;;;;;;;8.27;7.23;;;4.80;1.00;;;;;;5065947;28;20226;-57
2022/01/15 11:12:46;;;;;;;9.93;7.63;;;4.90;1.00;;;;;;5079434;28;20212;-58
2022/01/15 11:15:13;;;;;;;9.33;7.33;;;5.00;1.00;;;;;;5057232;28;20281;-57
2022/01/15 11:17:43;;;;;;;10.37;8.10;;;4.80;1.00;;;;;;5081912;28;20194;-58
2022/01/15 11:20:13;;;;;;;11.97;8.70;;;4.80;1.00;;;;;;5028162;28;20202;-58
2022/01/15 11:22:41;;;;;;;12.53;8.97;;;4.80;1.00;;;;;;5046133;28;20233;-60
2022/01/15 11:25:11;;;;;;;9.60;7.63;;;4.70;1.00;;;;;;5061637;28;20587;-58
2022/01/15 11:27:39;;;;;;;9.80;7.20;;;4.90;1.00;;;;;;5080093;28;20650;-57
2022/01/15 11:30:07;;;;;;;9.33;7.07;;;5.00;1.00;;;;;;5042552;28;20293;-57
2022/01/15 11:32:34;;;;;;;10.93;8.20;;;5.00;1.00;;;;;;5060925;28;20554;-59
2022/01/15 11:35:04;;;;;;;9.70;7.83;;;5.00;1.00;;;;;;5060556;28;20631;-57
2022/01/15 11:37:50;;;;;;;9.27;7.93;;;5.00;1.00;;;;;;5064881;28;20213;-57
2022/01/15 11:40:34;;;;;;;11.20;7.47;;;5.00;1.00;;;;;;5087238;28;20205;-58
2022/01/15 11:43:26;;;;;;;11.23;7.90;;;5.00;1.00;;;;;;5069023;28;20765;-57
2022/01/15 11:45:57;;;;;;;9.83;6.97;;;5.00;1.00;;;;;;5052995;28;20206;-57
2022/01/15 11:48:33;;;;;;;8.47;6.83;;;4.90;1.00;;;;;;5046390;28;20194;-57
2022/01/15 11:51:17;;;;;;;9.13;7.17;;;5.00;1.00;;;;;;5052686;28;20247;-57
2022/01/15 11:53:56;;;;;;;9.57;7.57;;;5.10;1.00;;;;;;5087842;28;20214;-57
2022/01/15 11:56:28;;;;;;;8.97;6.77;;;5.10;1.00;;;;;;5071469;28;20620;-57
2022/01/15 11:58:56;;;;;;;8.53;7.03;;;5.20;1.00;;;;;;5054548;28;20202;-57
2022/01/15 12:01:44;;;;;;;8.37;7.37;;;5.20;99.90;;;;;;5087410;28;20197;-55
2022/01/15 12:04:37;;;;;;;10.20;8.43;;;5.10;99.90;;;;;;5068988;28;20224;-57
2022/01/15 12:07:06;;;;;;;8.70;7.13;;;5.10;1.00;;;;;;5071157;28;20605;-57
2022/01/15 12:09:43;;;;;;;11.03;8.80;;;5.00;1.00;;;;;;5084788;28;20219;-57
2022/01/15 12:15:00;;;;;;;9.00;7.30;;;5.10;1.00;;;;;;5085986;28;20190;-57
2022/01/15 12:17:44;;;;;;;8.93;6.73;;;5.10;1.00;;;;;;5061216;28;20246;-57
2022/01/15 12:20:25;;;;;;;8.33;6.53;;;5.20;1.00;;;;;;5074809;28;20795;-58
2022/01/15 12:22:54;;;;;;;8.87;6.57;;;5.10;99.90;;;;;;5047110;28;20645;-57
2022/01/15 12:25:23;;;;;;;10.00;8.20;;;5.10;99.90;;;;;;5063924;28;20198;-57
2022/01/15 12:28:06;;;;;;;9.83;7.57;;;5.00;1.00;;;;;;5064751;28;20346;-59
2022/01/15 12:30:42;;;;;;;9.37;7.50;;;4.80;1.00;;;;;;5060382;28;20202;-58
2022/01/15 12:33:13;;;;;;;11.27;8.13;;;4.90;1.00;;;;;;5062185;28;20292;-58
2022/01/15 12:35:58;;;;;;;10.00;8.00;;;5.00;1.00;;;;;;5065771;28;20209;-57
2022/01/15 12:38:28;;;;;;;9.10;7.80;;;5.00;1.00;;;;;;5040711;28;20673;-57
2022/01/15 12:41:01;;;;;;;9.50;7.90;;;4.80;1.00;;;;;;5061902;28;20199;-57
2022/01/15 12:43:32;;;;;;;9.43;7.60;;;4.90;1.00;;;;;;5063501;28;20708;-57
2022/01/15 12:46:06;;;;;;;9.17;7.60;;;4.90;1.00;;;;;;5057718;28;20284;-56
2022/01/15 12:48:36;;;;;;;10.30;7.60;;;5.10;1.00;;;;;;5056481;28;20207;-57
2022/01/15 12:51:24;;;;;;;8.83;7.10;;;5.00;1.00;;;;;;5053887;28;20209;-58
2022/01/15 12:53:57;;;;;;;9.33;7.37;;;5.00;1.00;;;;;;5052360;28;20690;-57
2022/01/15 12:56:37;;;;;;;9.20;7.70;;;5.00;99.90;;;;;;5067302;28;20298;-56
2022/01/15 12:59:04;;;;;;;9.70;8.17;;;5.10;1.00;;;;;;5056177;28;20195;-58
2022/01/15 13:01:31;;;;;;;13.73;9.10;;;5.20;1.00;;;;;;5059261;28;20308;-57
2022/01/15 13:04:00;;;;;;;11.27;7.07;;;5.10;99.90;;;;;;5059559;28;20256;-57
2022/01/15 13:06:27;;;;;;;9.07;7.13;;;5.00;1.00;;;;;;5063104;28;20256;-57
2022/01/15 13:08:59;;;;;;;9.97;6.37;;;5.10;99.90;;;;;;5062587;28;20199;-57
2022/01/15 13:11:28;;;;;;;8.03;6.30;;;5.10;99.90;;;;;;5047375;28;20203;-57
2022/01/15 13:14:07;;;;;;;6.83;5.70;;;5.10;99.90;;;;;;5063772;28;20302;-57
2022/01/15 13:16:34;;;;;;;8.20;6.23;;;5.00;99.90;;;;;;5063236;28;20579;-58
2022/01/15 13:19:04;;;;;;;8.87;6.77;;;4.80;1.00;;;;;;5042694;28;20309;-57
2022/01/15 13:21:35;;;;;;;7.60;5.93;;;4.90;1.00;;;;;;5046236;28;20309;-59
2022/01/15 13:24:11;;;;;;;8.53;6.80;;;4.70;1.00;;;;;;5057407;28;20235;-57
2022/01/15 13:26:48;;;;;;;7.23;5.87;;;4.80;1.00;;;;;;5060492;28;20195;-57
2022/01/15 13:29:22;;;;;;;6.83;6.07;;;4.90;1.00;;;;;;5046776;28;20203;-58
2022/01/15 13:31:51;;;;;;;11.20;6.57;;;5.00;1.00;;;;;;5061842;28;20277;-58
2022/01/15 13:34:34;;;;;;;10.30;6.07;;;5.10;1.00;;;;;;5073166;28;20265;-57